sensor_id;sensor_type;location;lat;lon;timestamp;P1;durP1;ratioP1;P2;durP2;ratioP2
23470;SDS011;11908;50.806;4.424;2022-08-21T00:01:57;10.73;;;3.58;;
23470;SDS011;11908;50.806;4.424;2022-08-21T00:04:23;10.18;;;3.40;;
23470;SDS011;11908;50.806;4.424;2022-08-21T00:06:50;6.55;;;3.20;;
23470;SDS011;11908;50.806;4.424;2022-08-21T00:09:16;6.35;;;3.50;;
23470;SDS011;11908;50.806;4.424;2022-08-21T00:11:43;7.60;;;3.22;;
23470;SDS011;11908;50.806;4.424;2022-08-21T00:14:09;9.10;;;3.03;;
23470;SDS011;11908;50.806;4.424;2022-08-21T00:16:35;7.70;;;3.20;;
23470;SDS011;11908;50.806;4.424;2022-08-21T00:19:02;7.22;;;2.95;;
23470;SDS011;11908;50.806;4.424;2022-08-21T00:21:28;7.93;;;3.08;;
23470;SDS011;11908;50.806;4.424;2022-08-21T00:23:54;10.10;;;3.13;;
23470;SDS011;11908;50.806;4.424;2022-08-21T00:26:19;7.43;;;3.33;;
23470;SDS011;11908;50.806;4.424;2022-08-21T00:28:46;7.13;;;2.95;;
23470;SDS011;11908;50.806;4.424;2022-08-21T00:31:13;6.75;;;2.58;;
23470;SDS011;11908;50.806;4.424;2022-08-21T00:33:40;9.85;;;3.10;;
23470;SDS011;11908;50.806;4.424;2022-08-21T00:36:06;5.20;;;2.40;;
23470;SDS011;11908;50.806;4.424;2022-08-21T00:38:32;8.52;;;3.35;;
23470;SDS011;11908;50.806;4.424;2022-08-21T00:40:59;5.57;;;2.53;;
23470;SDS011;11908;50.806;4.424;2022-08-21T00:43:28;8.15;;;2.88;;
23470;SDS011;11908;50.806;4.424;2022-08-21T00:45:56;5.65;;;2.50;;
23470;SDS011;11908;50.806;4.424;2022-08-21T00:48:22;8.85;;;3.00;;
23470;SDS011;11908;50.806;4.424;2022-08-21T00:50:53;10.07;;;2.88;;
23470;SDS011;11908;50.806;4.424;2022-08-21T00:53:26;9.45;;;2.63;;
23470;SDS011;11908;50.806;4.424;2022-08-21T00:55:53;7.75;;;2.55;;
23470;SDS011;11908;50.806;4.424;2022-08-21T00:58:20;5.28;;;2.85;;
23470;SDS011;11908;50.806;4.424;2022-08-21T01:00:47;8.82;;;3.10;;
23470;SDS011;11908;50.806;4.424;2022-08-21T01:03:15;9.38;;;2.65;;
23470;SDS011;11908;50.806;4.424;2022-08-21T01:05:44;8.18;;;3.22;;
23470;SDS011;11908;50.806;4.424;2022-08-21T01:08:11;8.65;;;3.15;;
23470;SDS011;11908;50.806;4.424;2022-08-21T01:10:38;8.77;;;2.53;;
23470;SDS011;11908;50.806;4.424;2022-08-21T01:13:05;7.40;;;2.95;;
23470;SDS011;11908;50.806;4.424;2022-08-21T01:15:35;7.47;;;2.58;;
23470;SDS011;11908;50.806;4.424;2022-08-21T01:18:05;8.30;;;2.38;;
23470;SDS011;11908;50.806;4.424;2022-08-21T01:20:32;7.30;;;2.65;;
23470;SDS011;11908;50.806;4.424;2022-08-21T01:23:03;6.63;;;2.58;;
23470;SDS011;11908;50.806;4.424;2022-08-21T01:25:30;6.47;;;2.92;;
23470;SDS011;11908;50.806;4.424;2022-08-21T01:27:57;7.93;;;2.22;;
23470;SDS011;11908;50.806;4.424;2022-08-21T01:30:27;8.00;;;2.60;;
23470;SDS011;11908;50.806;4.424;2022-08-21T01:32:53;6.53;;;2.60;;
23470;SDS011;11908;50.806;4.424;2022-08-21T01:35:21;7.07;;;2.70;;
23470;SDS011;11908;50.806;4.424;2022-08-21T01:37:47;9.18;;;2.45;;
23470;SDS011;11908;50.806;4.424;2022-08-21T01:40:13;7.43;;;2.70;;
23470;SDS011;11908;50.806;4.424;2022-08-21T01:42:42;10.25;;;3.28;;
23470;SDS011;11908;50.806;4.424;2022-08-21T01:45:09;6.72;;;2.63;;
23470;SDS011;11908;50.806;4.424;2022-08-21T01:47:36;9.65;;;2.38;;
23470;SDS011;11908;50.806;4.424;2022-08-21T01:50:06;6.82;;;2.60;;
23470;SDS011;11908;50.806;4.424;2022-08-21T01:52:33;6.85;;;2.67;;
23470;SDS011;11908;50.806;4.424;2022-08-21T01:54:59;5.82;;;2.38;;
23470;SDS011;11908;50.806;4.424;2022-08-21T01:57:25;9.98;;;2.67;;
23470;SDS011;11908;50.806;4.424;2022-08-21T01:59:51;9.85;;;2.80;;
23470;SDS011;11908;50.806;4.424;2022-08-21T02:02:17;5.82;;;2.60;;
23470;SDS011;11908;50.806;4.424;2022-08-21T02:04:43;8.38;;;2.35;;
23470;SDS011;11908;50.806;4.424;2022-08-21T02:07:08;6.85;;;2.50;;
23470;SDS011;11908;50.806;4.424;2022-08-21T02:09:34;7.22;;;2.72;;
23470;SDS011;11908;50.806;4.424;2022-08-21T02:12:00;9.23;;;2.75;;
23470;SDS011;11908;50.806;4.424;2022-08-21T02:14:25;9.02;;;2.63;;
23470;SDS011;11908;50.806;4.424;2022-08-21T02:16:51;4.63;;;2.40;;
23470;SDS011;11908;50.806;4.424;2022-08-21T02:19:17;7.68;;;2.47;;
23470;SDS011;11908;50.806;4.424;2022-08-21T02:21:42;4.28;;;2.17;;
23470;SDS011;11908;50.806;4.424;2022-08-21T02:24:09;5.88;;;2.30;;
23470;SDS011;11908;50.806;4.424;2022-08-21T02:26:34;6.35;;;2.55;;
23470;SDS011;11908;50.806;4.424;2022-08-21T02:29:00;6.38;;;2.60;;
23470;SDS011;11908;50.806;4.424;2022-08-21T02:31:28;11.23;;;3.05;;
23470;SDS011;11908;50.806;4.424;2022-08-21T02:33:53;7.80;;;2.90;;
23470;SDS011;11908;50.806;4.424;2022-08-21T02:36:19;6.90;;;2.92;;
23470;SDS011;11908;50.806;4.424;2022-08-21T02:38:45;8.60;;;2.88;;
23470;SDS011;11908;50.806;4.424;2022-08-21T02:41:12;11.25;;;3.08;;
23470;SDS011;11908;50.806;4.424;2022-08-21T02:43:40;7.22;;;3.33;;
23470;SDS011;11908;50.806;4.424;2022-08-21T02:46:07;11.23;;;3.28;;
23470;SDS011;11908;50.806;4.424;2022-08-21T02:48:34;10.60;;;3.13;;
23470;SDS011;11908;50.806;4.424;2022-08-21T02:51:06;6.85;;;3.13;;
23470;SDS011;11908;50.806;4.424;2022-08-21T02:53:41;8.27;;;3.10;;
23470;SDS011;11908;50.806;4.424;2022-08-21T02:56:08;8.23;;;3.33;;
23470;SDS011;11908;50.806;4.424;2022-08-21T02:58:37;9.10;;;3.13;;
23470;SDS011;11908;50.806;4.424;2022-08-21T03:01:08;9.07;;;3.40;;
23470;SDS011;11908;50.806;4.424;2022-08-21T03:03:35;7.05;;;2.80;;
23470;SDS011;11908;50.806;4.424;2022-08-21T03:06:03;8.30;;;3.03;;
23470;SDS011;11908;50.806;4.424;2022-08-21T03:08:29;6.75;;;2.35;;
23470;SDS011;11908;50.806;4.424;2022-08-21T03:10:55;6.72;;;2.40;;
23470;SDS011;11908;50.806;4.424;2022-08-21T03:13:21;7.80;;;2.50;;
23470;SDS011;11908;50.806;4.424;2022-08-21T03:15:47;6.65;;;2.38;;
23470;SDS011;11908;50.806;4.424;2022-08-21T03:18:14;5.95;;;2.60;;
23470;SDS011;11908;50.806;4.424;2022-08-21T03:20:40;7.32;;;2.30;;
23470;SDS011;11908;50.806;4.424;2022-08-21T03:23:07;8.63;;;2.40;;
23470;SDS011;11908;50.806;4.424;2022-08-21T03:25:33;5.25;;;2.30;;
23470;SDS011;11908;50.806;4.424;2022-08-21T03:28:00;6.47;;;2.20;;
23470;SDS011;11908;50.806;4.424;2022-08-21T03:30:27;6.00;;;2.60;;
23470;SDS011;11908;50.806;4.424;2022-08-21T03:32:53;8.52;;;2.58;;
23470;SDS011;11908;50.806;4.424;2022-08-21T03:35:19;5.97;;;2.45;;
23470;SDS011;11908;50.806;4.424;2022-08-21T03:37:45;11.77;;;2.40;;
23470;SDS011;11908;50.806;4.424;2022-08-21T03:40:13;6.10;;;2.38;;
23470;SDS011;11908;50.806;4.424;2022-08-21T03:42:41;9.43;;;2.47;;
23470;SDS011;11908;50.806;4.424;2022-08-21T03:45:07;4.28;;;2.10;;
23470;SDS011;11908;50.806;4.424;2022-08-21T03:47:33;10.35;;;2.65;;
23470;SDS011;11908;50.806;4.424;2022-08-21T03:50:00;7.53;;;2.17;;
23470;SDS011;11908;50.806;4.424;2022-08-21T03:52:28;7.53;;;2.60;;
23470;SDS011;11908;50.806;4.424;2022-08-21T03:54:54;7.75;;;2.50;;
23470;SDS011;11908;50.806;4.424;2022-08-21T03:57:19;7.07;;;2.17;;
23470;SDS011;11908;50.806;4.424;2022-08-21T03:59:46;9.98;;;2.53;;
23470;SDS011;11908;50.806;4.424;2022-08-21T04:02:12;8.55;;;2.30;;
23470;SDS011;11908;50.806;4.424;2022-08-21T04:04:42;7.63;;;2.10;;
23470;SDS011;11908;50.806;4.424;2022-08-21T04:07:08;7.13;;;2.13;;
23470;SDS011;11908;50.806;4.424;2022-08-21T04:09:33;7.00;;;2.28;;
23470;SDS011;11908;50.806;4.424;2022-08-21T04:11:59;4.68;;;2.05;;
23470;SDS011;11908;50.806;4.424;2022-08-21T04:14:25;7.13;;;2.00;;
23470;SDS011;11908;50.806;4.424;2022-08-21T04:16:51;5.05;;;1.80;;
23470;SDS011;11908;50.806;4.424;2022-08-21T04:19:17;4.40;;;1.90;;
23470;SDS011;11908;50.806;4.424;2022-08-21T04:21:42;6.97;;;2.00;;
23470;SDS011;11908;50.806;4.424;2022-08-21T04:24:09;6.78;;;1.90;;
23470;SDS011;11908;50.806;4.424;2022-08-21T04:26:35;7.57;;;2.13;;
23470;SDS011;11908;50.806;4.424;2022-08-21T04:29:02;5.95;;;2.10;;
23470;SDS011;11908;50.806;4.424;2022-08-21T04:31:33;6.22;;;1.85;;
23470;SDS011;11908;50.806;4.424;2022-08-21T04:33:59;7.97;;;2.30;;
23470;SDS011;11908;50.806;4.424;2022-08-21T04:36:25;5.45;;;2.30;;
23470;SDS011;11908;50.806;4.424;2022-08-21T04:38:51;4.15;;;1.60;;
23470;SDS011;11908;50.806;4.424;2022-08-21T04:41:17;7.57;;;2.28;;
23470;SDS011;11908;50.806;4.424;2022-08-21T04:43:43;6.95;;;1.55;;
23470;SDS011;11908;50.806;4.424;2022-08-21T04:46:09;5.47;;;2.05;;
23470;SDS011;11908;50.806;4.424;2022-08-21T04:48:34;5.10;;;2.55;;
23470;SDS011;11908;50.806;4.424;2022-08-21T04:55:51;5.30;;;1.90;;
23470;SDS011;11908;50.806;4.424;2022-08-21T04:58:20;5.18;;;1.73;;
23470;SDS011;11908;50.806;4.424;2022-08-21T05:00:47;2.65;;;1.50;;
23470;SDS011;11908;50.806;4.424;2022-08-21T05:03:13;5.90;;;1.90;;
23470;SDS011;11908;50.806;4.424;2022-08-21T05:05:41;5.95;;;1.40;;
23470;SDS011;11908;50.806;4.424;2022-08-21T05:08:08;3.67;;;1.45;;
23470;SDS011;11908;50.806;4.424;2022-08-21T05:10:37;4.40;;;1.60;;
23470;SDS011;11908;50.806;4.424;2022-08-21T05:13:02;7.18;;;1.52;;
23470;SDS011;11908;50.806;4.424;2022-08-21T05:15:30;4.00;;;1.60;;
23470;SDS011;11908;50.806;4.424;2022-08-21T05:17:56;3.33;;;1.25;;
23470;SDS011;11908;50.806;4.424;2022-08-21T05:20:22;3.70;;;1.45;;
23470;SDS011;11908;50.806;4.424;2022-08-21T05:22:48;3.33;;;1.23;;
23470;SDS011;11908;50.806;4.424;2022-08-21T05:25:14;4.07;;;1.33;;
23470;SDS011;11908;50.806;4.424;2022-08-21T05:27:40;4.35;;;1.33;;
23470;SDS011;11908;50.806;4.424;2022-08-21T05:30:07;4.28;;;1.33;;
23470;SDS011;11908;50.806;4.424;2022-08-21T05:32:33;4.15;;;1.50;;
23470;SDS011;11908;50.806;4.424;2022-08-21T05:35:00;6.18;;;1.50;;
23470;SDS011;11908;50.806;4.424;2022-08-21T05:37:25;2.22;;;1.20;;
23470;SDS011;11908;50.806;4.424;2022-08-21T05:39:51;3.80;;;1.35;;
23470;SDS011;11908;50.806;4.424;2022-08-21T05:42:17;5.10;;;1.30;;
23470;SDS011;11908;50.806;4.424;2022-08-21T05:44:42;5.05;;;1.20;;
23470;SDS011;11908;50.806;4.424;2022-08-21T05:47:09;6.18;;;1.23;;
23470;SDS011;11908;50.806;4.424;2022-08-21T05:49:36;3.53;;;1.60;;
23470;SDS011;11908;50.806;4.424;2022-08-21T05:52:02;2.97;;;1.20;;
23470;SDS011;11908;50.806;4.424;2022-08-21T05:54:29;2.72;;;1.40;;
23470;SDS011;11908;50.806;4.424;2022-08-21T05:56:55;4.03;;;1.50;;
23470;SDS011;11908;50.806;4.424;2022-08-21T05:59:21;5.65;;;1.50;;
23470;SDS011;11908;50.806;4.424;2022-08-21T06:01:47;4.57;;;1.30;;
23470;SDS011;11908;50.806;4.424;2022-08-21T06:04:13;6.90;;;1.25;;
23470;SDS011;11908;50.806;4.424;2022-08-21T06:06:39;7.03;;;1.55;;
23470;SDS011;11908;50.806;4.424;2022-08-21T06:09:05;5.78;;;1.55;;
23470;SDS011;11908;50.806;4.424;2022-08-21T06:11:31;7.25;;;1.50;;
23470;SDS011;11908;50.806;4.424;2022-08-21T06:13:57;4.90;;;1.50;;
23470;SDS011;11908;50.806;4.424;2022-08-21T06:16:24;4.70;;;1.17;;
23470;SDS011;11908;50.806;4.424;2022-08-21T06:18:51;4.88;;;1.40;;
23470;SDS011;11908;50.806;4.424;2022-08-21T06:21:17;7.35;;;1.80;;
23470;SDS011;11908;50.806;4.424;2022-08-21T06:23:43;5.15;;;1.77;;
23470;SDS011;11908;50.806;4.424;2022-08-21T06:26:10;4.40;;;1.33;;
23470;SDS011;11908;50.806;4.424;2022-08-21T06:28:37;9.82;;;1.73;;
23470;SDS011;11908;50.806;4.424;2022-08-21T06:31:13;4.13;;;1.48;;
23470;SDS011;11908;50.806;4.424;2022-08-21T06:33:44;6.97;;;1.95;;
23470;SDS011;11908;50.806;4.424;2022-08-21T06:36:10;8.93;;;1.52;;
23470;SDS011;11908;50.806;4.424;2022-08-21T06:38:36;6.43;;;1.70;;
23470;SDS011;11908;50.806;4.424;2022-08-21T06:41:02;5.20;;;1.30;;
23470;SDS011;11908;50.806;4.424;2022-08-21T06:43:28;7.03;;;1.50;;
23470;SDS011;11908;50.806;4.424;2022-08-21T06:45:54;5.80;;;1.40;;
23470;SDS011;11908;50.806;4.424;2022-08-21T06:48:20;7.18;;;1.35;;
23470;SDS011;11908;50.806;4.424;2022-08-21T06:50:46;5.90;;;1.65;;
23470;SDS011;11908;50.806;4.424;2022-08-21T06:53:13;5.88;;;1.35;;
23470;SDS011;11908;50.806;4.424;2022-08-21T06:55:41;8.45;;;1.55;;
23470;SDS011;11908;50.806;4.424;2022-08-21T06:58:07;8.05;;;1.83;;
23470;SDS011;11908;50.806;4.424;2022-08-21T07:00:34;10.43;;;1.85;;
23470;SDS011;11908;50.806;4.424;2022-08-21T07:03:03;6.25;;;1.38;;
23470;SDS011;11908;50.806;4.424;2022-08-21T07:05:29;5.30;;;1.38;;
23470;SDS011;11908;50.806;4.424;2022-08-21T07:07:55;5.63;;;1.50;;
23470;SDS011;11908;50.806;4.424;2022-08-21T07:10:22;6.28;;;1.45;;
23470;SDS011;11908;50.806;4.424;2022-08-21T07:12:49;7.20;;;1.30;;
23470;SDS011;11908;50.806;4.424;2022-08-21T07:15:15;6.75;;;1.67;;
23470;SDS011;11908;50.806;4.424;2022-08-21T07:17:41;6.20;;;1.65;;
23470;SDS011;11908;50.806;4.424;2022-08-21T07:20:07;4.22;;;1.30;;
23470;SDS011;11908;50.806;4.424;2022-08-21T07:22:33;6.30;;;1.30;;
23470;SDS011;11908;50.806;4.424;2022-08-21T07:25:03;10.27;;;1.45;;
23470;SDS011;11908;50.806;4.424;2022-08-21T07:27:29;7.65;;;1.67;;
23470;SDS011;11908;50.806;4.424;2022-08-21T07:29:56;8.40;;;1.60;;
23470;SDS011;11908;50.806;4.424;2022-08-21T07:32:22;7.65;;;1.48;;
23470;SDS011;11908;50.806;4.424;2022-08-21T07:34:47;8.93;;;1.33;;
23470;SDS011;11908;50.806;4.424;2022-08-21T07:37:13;6.57;;;1.80;;
23470;SDS011;11908;50.806;4.424;2022-08-21T07:39:39;7.55;;;1.17;;
23470;SDS011;11908;50.806;4.424;2022-08-21T07:42:05;5.35;;;1.20;;
23470;SDS011;11908;50.806;4.424;2022-08-21T07:44:30;5.88;;;1.67;;
23470;SDS011;11908;50.806;4.424;2022-08-21T07:46:56;5.28;;;1.42;;
23470;SDS011;11908;50.806;4.424;2022-08-21T07:49:22;4.13;;;1.30;;
23470;SDS011;11908;50.806;4.424;2022-08-21T07:51:48;8.45;;;1.58;;
23470;SDS011;11908;50.806;4.424;2022-08-21T07:54:14;5.10;;;1.40;;
23470;SDS011;11908;50.806;4.424;2022-08-21T07:56:39;6.13;;;1.67;;
23470;SDS011;11908;50.806;4.424;2022-08-21T07:59:05;6.18;;;1.20;;
23470;SDS011;11908;50.806;4.424;2022-08-21T08:01:31;4.03;;;1.27;;
23470;SDS011;11908;50.806;4.424;2022-08-21T08:03:56;5.30;;;1.55;;
23470;SDS011;11908;50.806;4.424;2022-08-21T08:06:22;5.95;;;1.40;;
23470;SDS011;11908;50.806;4.424;2022-08-21T08:08:49;8.50;;;1.50;;
23470;SDS011;11908;50.806;4.424;2022-08-21T08:11:14;6.82;;;1.48;;
23470;SDS011;11908;50.806;4.424;2022-08-21T08:13:41;7.25;;;1.58;;
23470;SDS011;11908;50.806;4.424;2022-08-21T08:16:08;5.22;;;1.60;;
23470;SDS011;11908;50.806;4.424;2022-08-21T08:18:34;4.43;;;1.33;;
23470;SDS011;11908;50.806;4.424;2022-08-21T08:21:00;7.10;;;1.60;;
23470;SDS011;11908;50.806;4.424;2022-08-21T08:23:26;6.07;;;1.35;;
23470;SDS011;11908;50.806;4.424;2022-08-21T08:25:52;6.13;;;1.58;;
23470;SDS011;11908;50.806;4.424;2022-08-21T08:28:18;6.07;;;1.52;;
23470;SDS011;11908;50.806;4.424;2022-08-21T08:30:47;7.70;;;1.60;;
23470;SDS011;11908;50.806;4.424;2022-08-21T08:33:14;4.70;;;1.45;;
23470;SDS011;11908;50.806;4.424;2022-08-21T08:35:45;6.20;;;1.60;;
23470;SDS011;11908;50.806;4.424;2022-08-21T08:38:13;8.55;;;1.60;;
23470;SDS011;11908;50.806;4.424;2022-08-21T08:40:55;6.70;;;1.40;;
23470;SDS011;11908;50.806;4.424;2022-08-21T08:43:29;8.50;;;1.77;;
23470;SDS011;11908;50.806;4.424;2022-08-21T08:45:57;6.20;;;1.48;;
23470;SDS011;11908;50.806;4.424;2022-08-21T08:48:31;8.13;;;1.70;;
23470;SDS011;11908;50.806;4.424;2022-08-21T08:51:40;4.97;;;1.35;;
23470;SDS011;11908;50.806;4.424;2022-08-21T08:54:28;4.72;;;1.42;;
23470;SDS011;11908;50.806;4.424;2022-08-21T08:57:07;4.78;;;1.20;;
23470;SDS011;11908;50.806;4.424;2022-08-21T08:59:41;8.15;;;1.48;;
23470;SDS011;11908;50.806;4.424;2022-08-21T09:02:13;3.63;;;1.40;;
23470;SDS011;11908;50.806;4.424;2022-08-21T09:04:40;8.43;;;1.83;;
23470;SDS011;11908;50.806;4.424;2022-08-21T09:15:30;6.85;;;1.42;;
23470;SDS011;11908;50.806;4.424;2022-08-21T09:20:52;7.03;;;1.63;;
23470;SDS011;11908;50.806;4.424;2022-08-21T09:26:11;7.60;;;1.90;;
23470;SDS011;11908;50.806;4.424;2022-08-21T09:28:38;5.15;;;1.58;;
23470;SDS011;11908;50.806;4.424;2022-08-21T09:31:07;5.53;;;1.67;;
23470;SDS011;11908;50.806;4.424;2022-08-21T09:33:46;6.70;;;1.50;;
23470;SDS011;11908;50.806;4.424;2022-08-21T09:36:11;7.35;;;1.75;;
23470;SDS011;11908;50.806;4.424;2022-08-21T09:38:51;5.55;;;1.48;;
23470;SDS011;11908;50.806;4.424;2022-08-21T09:41:25;7.38;;;1.30;;
23470;SDS011;11908;50.806;4.424;2022-08-21T09:43:53;5.72;;;1.70;;
23470;SDS011;11908;50.806;4.424;2022-08-21T09:46:26;5.00;;;1.30;;
23470;SDS011;11908;50.806;4.424;2022-08-21T09:48:57;6.70;;;1.48;;
23470;SDS011;11908;50.806;4.424;2022-08-21T09:51:34;4.82;;;1.38;;
23470;SDS011;11908;50.806;4.424;2022-08-21T09:56:34;7.32;;;1.77;;
23470;SDS011;11908;50.806;4.424;2022-08-21T09:59:29;5.20;;;1.38;;
23470;SDS011;11908;50.806;4.424;2022-08-21T10:01:58;5.95;;;1.63;;
23470;SDS011;11908;50.806;4.424;2022-08-21T10:04:34;7.18;;;1.67;;
23470;SDS011;11908;50.806;4.424;2022-08-21T10:09:34;6.50;;;1.80;;
23470;SDS011;11908;50.806;4.424;2022-08-21T10:14:44;9.50;;;1.92;;
23470;SDS011;11908;50.806;4.424;2022-08-21T10:17:21;7.95;;;2.10;;
23470;SDS011;11908;50.806;4.424;2022-08-21T10:19:55;6.25;;;1.55;;
23470;SDS011;11908;50.806;4.424;2022-08-21T10:30:41;7.47;;;2.10;;
23470;SDS011;11908;50.806;4.424;2022-08-21T10:36:16;6.28;;;1.83;;
23470;SDS011;11908;50.806;4.424;2022-08-21T10:44:09;5.68;;;1.67;;
23470;SDS011;11908;50.806;4.424;2022-08-21T10:49:22;7.22;;;2.00;;
23470;SDS011;11908;50.806;4.424;2022-08-21T10:55:00;10.52;;;1.98;;
23470;SDS011;11908;50.806;4.424;2022-08-21T10:57:36;8.15;;;1.90;;
23470;SDS011;11908;50.806;4.424;2022-08-21T11:00:09;8.95;;;2.35;;
23470;SDS011;11908;50.806;4.424;2022-08-21T11:02:42;8.02;;;2.10;;
23470;SDS011;11908;50.806;4.424;2022-08-21T11:05:50;9.10;;;2.33;;
23470;SDS011;11908;50.806;4.424;2022-08-21T11:10:59;7.25;;;1.55;;
23470;SDS011;11908;50.806;4.424;2022-08-21T11:13:45;8.48;;;1.83;;
23470;SDS011;11908;50.806;4.424;2022-08-21T11:19:25;11.90;;;2.28;;
23470;SDS011;11908;50.806;4.424;2022-08-21T11:22:11;7.97;;;2.58;;
23470;SDS011;11908;50.806;4.424;2022-08-21T11:24:50;12.93;;;2.17;;
23470;SDS011;11908;50.806;4.424;2022-08-21T11:27:44;9.52;;;2.47;;
23470;SDS011;11908;50.806;4.424;2022-08-21T11:30:14;6.93;;;1.70;;
23470;SDS011;11908;50.806;4.424;2022-08-21T11:33:14;6.53;;;1.80;;
23470;SDS011;11908;50.806;4.424;2022-08-21T11:35:46;5.30;;;1.48;;
23470;SDS011;11908;50.806;4.424;2022-08-21T11:43:55;10.63;;;2.58;;
23470;SDS011;11908;50.806;4.424;2022-08-21T11:47:00;7.93;;;1.90;;
23470;SDS011;11908;50.806;4.424;2022-08-21T11:52:26;9.82;;;1.90;;
23470;SDS011;11908;50.806;4.424;2022-08-21T11:55:07;9.48;;;1.75;;
23470;SDS011;11908;50.806;4.424;2022-08-21T11:57:59;6.55;;;2.00;;
23470;SDS011;11908;50.806;4.424;2022-08-21T12:00:44;6.10;;;1.98;;
23470;SDS011;11908;50.806;4.424;2022-08-21T12:03:16;12.48;;;1.98;;
23470;SDS011;11908;50.806;4.424;2022-08-21T12:05:54;7.78;;;1.70;;
23470;SDS011;11908;50.806;4.424;2022-08-21T12:08:56;8.63;;;2.10;;
23470;SDS011;11908;50.806;4.424;2022-08-21T12:11:23;8.25;;;1.90;;
23470;SDS011;11908;50.806;4.424;2022-08-21T12:16:30;7.85;;;2.20;;
23470;SDS011;11908;50.806;4.424;2022-08-21T12:21:31;9.85;;;1.77;;
23470;SDS011;11908;50.806;4.424;2022-08-21T12:26:48;9.48;;;1.75;;
23470;SDS011;11908;50.806;4.424;2022-08-21T12:34:38;8.30;;;2.25;;
23470;SDS011;11908;50.806;4.424;2022-08-21T12:37:25;7.70;;;2.30;;
23470;SDS011;11908;50.806;4.424;2022-08-21T12:39:57;8.70;;;1.90;;
23470;SDS011;11908;50.806;4.424;2022-08-21T12:42:31;8.55;;;1.83;;
23470;SDS011;11908;50.806;4.424;2022-08-21T12:45:06;7.82;;;1.70;;
23470;SDS011;11908;50.806;4.424;2022-08-21T12:47:56;6.80;;;2.08;;
23470;SDS011;11908;50.806;4.424;2022-08-21T12:50:48;5.97;;;2.13;;
23470;SDS011;11908;50.806;4.424;2022-08-21T12:55:47;7.07;;;1.50;;
23470;SDS011;11908;50.806;4.424;2022-08-21T12:58:17;7.28;;;2.03;;
23470;SDS011;11908;50.806;4.424;2022-08-21T13:00:49;6.72;;;1.88;;
23470;SDS011;11908;50.806;4.424;2022-08-21T13:03:17;10.50;;;2.47;;
23470;SDS011;11908;50.806;4.424;2022-08-21T13:05:43;8.65;;;2.10;;
23470;SDS011;11908;50.806;4.424;2022-08-21T13:08:09;7.97;;;2.03;;
23470;SDS011;11908;50.806;4.424;2022-08-21T13:10:37;9.55;;;2.08;;
23470;SDS011;11908;50.806;4.424;2022-08-21T13:13:11;7.07;;;1.48;;
23470;SDS011;11908;50.806;4.424;2022-08-21T13:15:42;7.50;;;2.08;;
23470;SDS011;11908;50.806;4.424;2022-08-21T13:18:08;6.95;;;1.88;;
23470;SDS011;11908;50.806;4.424;2022-08-21T13:20:47;6.50;;;1.90;;
23470;SDS011;11908;50.806;4.424;2022-08-21T13:23:23;10.05;;;1.58;;
23470;SDS011;11908;50.806;4.424;2022-08-21T13:25:52;11.80;;;1.95;;
23470;SDS011;11908;50.806;4.424;2022-08-21T13:28:18;8.35;;;2.20;;
23470;SDS011;11908;50.806;4.424;2022-08-21T13:30:50;7.55;;;1.73;;
23470;SDS011;11908;50.806;4.424;2022-08-21T13:33:22;6.82;;;1.60;;
23470;SDS011;11908;50.806;4.424;2022-08-21T13:38:22;7.72;;;1.42;;
23470;SDS011;11908;50.806;4.424;2022-08-21T13:40:57;8.82;;;1.80;;
23470;SDS011;11908;50.806;4.424;2022-08-21T13:43:28;10.95;;;1.60;;
23470;SDS011;11908;50.806;4.424;2022-08-21T13:45:57;9.70;;;2.20;;
23470;SDS011;11908;50.806;4.424;2022-08-21T13:48:25;8.10;;;1.75;;
23470;SDS011;11908;50.806;4.424;2022-08-21T13:50:54;9.38;;;1.90;;
23470;SDS011;11908;50.806;4.424;2022-08-21T13:53:28;7.45;;;2.20;;
23470;SDS011;11908;50.806;4.424;2022-08-21T13:55:59;6.50;;;1.50;;
23470;SDS011;11908;50.806;4.424;2022-08-21T13:58:45;8.57;;;1.65;;
23470;SDS011;11908;50.806;4.424;2022-08-21T14:01:25;7.13;;;1.80;;
23470;SDS011;11908;50.806;4.424;2022-08-21T14:04:02;9.57;;;1.98;;
23470;SDS011;11908;50.806;4.424;2022-08-21T14:06:37;7.82;;;1.75;;
23470;SDS011;11908;50.806;4.424;2022-08-21T14:09:11;9.98;;;1.95;;
23470;SDS011;11908;50.806;4.424;2022-08-21T14:11:40;7.38;;;1.77;;
23470;SDS011;11908;50.806;4.424;2022-08-21T14:16:52;8.73;;;2.05;;
23470;SDS011;11908;50.806;4.424;2022-08-21T14:19:48;4.95;;;1.35;;
23470;SDS011;11908;50.806;4.424;2022-08-21T14:22:29;8.20;;;2.15;;
23470;SDS011;11908;50.806;4.424;2022-08-21T14:24:59;9.63;;;1.60;;
23470;SDS011;11908;50.806;4.424;2022-08-21T14:27:44;11.85;;;2.65;;
23470;SDS011;11908;50.806;4.424;2022-08-21T14:30:21;9.23;;;1.83;;
23470;SDS011;11908;50.806;4.424;2022-08-21T14:32:58;6.95;;;1.60;;
23470;SDS011;11908;50.806;4.424;2022-08-21T14:35:24;9.05;;;1.90;;
23470;SDS011;11908;50.806;4.424;2022-08-21T14:37:50;8.95;;;2.45;;
23470;SDS011;11908;50.806;4.424;2022-08-21T14:40:17;9.77;;;1.77;;
23470;SDS011;11908;50.806;4.424;2022-08-21T14:42:44;8.13;;;2.30;;
23470;SDS011;11908;50.806;4.424;2022-08-21T14:45:15;9.50;;;2.03;;
23470;SDS011;11908;50.806;4.424;2022-08-21T14:47:42;9.70;;;1.90;;
23470;SDS011;11908;50.806;4.424;2022-08-21T14:50:09;10.10;;;1.60;;
23470;SDS011;11908;50.806;4.424;2022-08-21T14:52:36;12.77;;;2.72;;
23470;SDS011;11908;50.806;4.424;2022-08-21T14:55:02;9.73;;;1.58;;
23470;SDS011;11908;50.806;4.424;2022-08-21T14:57:29;10.05;;;1.88;;
23470;SDS011;11908;50.806;4.424;2022-08-21T14:59:56;9.27;;;1.77;;
23470;SDS011;11908;50.806;4.424;2022-08-21T15:02:22;8.23;;;2.05;;
23470;SDS011;11908;50.806;4.424;2022-08-21T15:04:47;9.05;;;2.40;;
23470;SDS011;11908;50.806;4.424;2022-08-21T15:07:13;11.57;;;2.13;;
23470;SDS011;11908;50.806;4.424;2022-08-21T15:09:39;7.93;;;2.00;;
23470;SDS011;11908;50.806;4.424;2022-08-21T15:12:04;10.82;;;2.47;;
23470;SDS011;11908;50.806;4.424;2022-08-21T15:14:33;7.72;;;1.80;;
23470;SDS011;11908;50.806;4.424;2022-08-21T15:17:01;5.97;;;1.67;;
23470;SDS011;11908;50.806;4.424;2022-08-21T15:19:28;7.90;;;2.08;;
23470;SDS011;11908;50.806;4.424;2022-08-21T15:21:55;8.77;;;2.30;;
23470;SDS011;11908;50.806;4.424;2022-08-21T15:24:20;14.70;;;2.25;;
23470;SDS011;11908;50.806;4.424;2022-08-21T15:26:46;8.20;;;1.88;;
23470;SDS011;11908;50.806;4.424;2022-08-21T15:29:12;8.95;;;2.15;;
23470;SDS011;11908;50.806;4.424;2022-08-21T15:32:01;9.88;;;2.17;;
23470;SDS011;11908;50.806;4.424;2022-08-21T15:34:27;7.88;;;1.77;;
23470;SDS011;11908;50.806;4.424;2022-08-21T15:36:55;9.50;;;2.10;;
23470;SDS011;11908;50.806;4.424;2022-08-21T15:39:22;8.40;;;1.73;;
23470;SDS011;11908;50.806;4.424;2022-08-21T15:41:48;7.75;;;2.20;;
23470;SDS011;11908;50.806;4.424;2022-08-21T15:44:14;9.38;;;1.88;;
23470;SDS011;11908;50.806;4.424;2022-08-21T15:46:40;6.65;;;1.85;;
23470;SDS011;11908;50.806;4.424;2022-08-21T15:49:06;5.72;;;1.45;;
23470;SDS011;11908;50.806;4.424;2022-08-21T15:51:33;9.55;;;1.95;;
23470;SDS011;11908;50.806;4.424;2022-08-21T15:53:59;8.60;;;1.95;;
23470;SDS011;11908;50.806;4.424;2022-08-21T15:56:26;13.60;;;2.17;;
23470;SDS011;11908;50.806;4.424;2022-08-21T15:59:02;7.00;;;2.00;;
23470;SDS011;11908;50.806;4.424;2022-08-21T16:01:37;9.23;;;2.53;;
23470;SDS011;11908;50.806;4.424;2022-08-21T16:04:04;5.60;;;1.80;;
23470;SDS011;11908;50.806;4.424;2022-08-21T16:06:31;8.65;;;2.55;;
23470;SDS011;11908;50.806;4.424;2022-08-21T16:08:57;6.10;;;1.80;;
23470;SDS011;11908;50.806;4.424;2022-08-21T16:11:23;11.50;;;1.83;;
23470;SDS011;11908;50.806;4.424;2022-08-21T16:13:49;7.68;;;2.13;;
23470;SDS011;11908;50.806;4.424;2022-08-21T16:16:19;7.55;;;1.80;;
23470;SDS011;11908;50.806;4.424;2022-08-21T16:18:46;12.23;;;2.00;;
23470;SDS011;11908;50.806;4.424;2022-08-21T16:21:13;9.07;;;2.30;;
23470;SDS011;11908;50.806;4.424;2022-08-21T16:23:39;6.88;;;1.90;;